Terminal Aerodrome Forecast
Issued by NWS

Home | Current Version | Previous Version | Text Only | Print | Product List | Glossary On
Versions: 1 2 3 4 5 6 7 8 9 10 11 12 13 14 15 16 17
000
FTUS43 KMKX 252342
TAFENW
TAF
KENW 252342Z 2600/2624 13011KT P6SM BKN120
     FM261100 16010KT P6SM VCSH OVC060
     FM261400 18011KT P6SM VCSH OVC035
     FM261600 18012KT 6SM SHRA VCTS BKN020 OVC040CB
     FM262000 20014G22KT 5SM -SHRA BR BKN020=

USA.gov is the U.S. government's official web portal to all federal, state and local government web resources and services.